Time;durP1;ratioP1;P1;durP2;ratioP2;P2;SDS_P1;SDS_P2;PMS_P1;PMS_P2;Temp;Humidity;BMP_temperature;BMP_pressure;BME280_temperature;BME280_humidity;BME280_pressure;Samples;Min_cycle;Max_cycle;Signal;HPM_P1;HPM_P2
2021/01/06 00:00:39;;;;;;;5.50;3.42;;;;;10.60;101636.00;;;;4995679;28;20662;-76
2021/01/06 00:03:06;;;;;;;5.25;3.45;;;;;10.60;101641.00;;;;4996629;28;20213;-76
2021/01/06 00:05:33;;;;;;;6.05;3.42;;;;;10.60;101643.00;;;;5001208;28;20260;-75
2021/01/06 00:08:00;;;;;;;7.30;4.47;;;;;10.60;101639.00;;;;5002188;28;20201;-76
2021/01/06 00:10:28;;;;;;;6.55;4.25;;;;;10.60;101641.00;;;;5010081;28;20227;-76
2021/01/06 00:12:55;;;;;;;5.60;4.15;;;;;10.60;101640.00;;;;5009959;28;20364;-76
2021/01/06 00:15:26;;;;;;;6.10;3.83;;;;;10.60;101631.00;;;;5003189;28;20283;-76
2021/01/06 00:17:54;;;;;;;6.20;4.18;;;;;10.60;101635.00;;;;5009596;28;20568;-76
2021/01/06 00:20:24;;;;;;;7.18;3.65;;;;;10.50;101635.00;;;;5009185;28;20228;-76
2021/01/06 00:22:51;;;;;;;6.68;4.20;;;;;10.50;101633.00;;;;4990325;28;20216;-76
2021/01/06 00:25:20;;;;;;;8.50;4.55;;;;;10.50;101635.00;;;;4996439;28;20584;-75
2021/01/06 00:27:46;;;;;;;9.25;4.53;;;;;10.50;101643.00;;;;5003609;28;20201;-76
2021/01/06 00:30:19;;;;;;;6.15;4.25;;;;;10.50;101634.00;;;;5007943;28;20698;-76
2021/01/06 00:32:46;;;;;;;5.43;3.60;;;;;10.50;101641.00;;;;5001500;28;20577;-75
2021/01/06 00:35:13;;;;;;;6.82;3.83;;;;;10.50;101626.00;;;;5008916;28;20200;-76
2021/01/06 00:37:40;;;;;;;4.85;2.97;;;;;10.50;101631.00;;;;5009718;28;20216;-76
2021/01/06 00:40:08;;;;;;;5.72;3.75;;;;;10.40;101628.00;;;;5008634;28;20220;-76
2021/01/06 00:42:36;;;;;;;6.65;3.80;;;;;10.40;101622.00;;;;5009803;28;20251;-75
2021/01/06 00:45:05;;;;;;;8.20;4.60;;;;;10.40;101625.00;;;;5007143;28;20814;-76
2021/01/06 00:47:32;;;;;;;7.90;4.78;;;;;10.40;101623.00;;;;4997260;28;20212;-76
2021/01/06 00:49:58;;;;;;;6.20;3.83;;;;;10.40;101613.00;;;;5009372;28;20211;-76
2021/01/06 00:52:26;;;;;;;6.47;3.95;;;;;10.50;101615.00;;;;4991173;28;20205;-76
2021/01/06 00:54:53;;;;;;;7.22;4.68;;;;;10.50;101615.00;;;;5001258;28;20244;-76
2021/01/06 00:57:19;;;;;;;6.72;4.38;;;;;10.50;101602.00;;;;4989919;28;20240;-76
2021/01/06 00:59:46;;;;;;;7.28;4.53;;;;;10.50;101608.00;;;;4989457;28;20339;-76
2021/01/06 01:02:13;;;;;;;6.13;3.90;;;;;10.50;101612.00;;;;5003502;28;20205;-76
2021/01/06 01:04:40;;;;;;;6.57;3.63;;;;;10.50;101616.00;;;;5009720;28;20205;-76
2021/01/06 01:07:07;;;;;;;6.60;3.88;;;;;10.50;101604.00;;;;4994182;28;20200;-76
2021/01/06 01:09:35;;;;;;;7.40;4.15;;;;;10.50;101609.00;;;;4990578;28;20222;-75
2021/01/06 01:12:04;;;;;;;5.05;3.75;;;;;10.50;101613.00;;;;5005979;28;20201;-76
2021/01/06 01:14:30;;;;;;;5.60;3.58;;;;;10.40;101615.00;;;;5009704;28;20975;-76
2021/01/06 01:16:57;;;;;;;4.32;3.20;;;;;10.40;101612.00;;;;5008863;28;20243;-76
2021/01/06 01:19:24;;;;;;;6.13;3.78;;;;;10.40;101604.00;;;;5009322;28;20205;-76
2021/01/06 01:21:50;;;;;;;5.75;3.70;;;;;10.40;101609.00;;;;5005544;28;20201;-76
2021/01/06 01:24:17;;;;;;;6.13;3.80;;;;;10.40;101614.00;;;;5008652;28;20204;-76
2021/01/06 01:26:45;;;;;;;5.60;3.67;;;;;10.40;101614.00;;;;4992816;28;20220;-76
2021/01/06 01:29:11;;;;;;;7.03;3.83;;;;;10.40;101609.00;;;;5009398;28;20189;-76
2021/01/06 01:31:39;;;;;;;6.13;3.88;;;;;10.40;101609.00;;;;5006507;28;20803;-76
2021/01/06 01:34:06;;;;;;;5.50;3.15;;;;;10.30;101607.00;;;;5009420;28;20208;-76
2021/01/06 01:36:32;;;;;;;6.00;3.20;;;;;10.30;101614.00;;;;5008244;28;20205;-76
2021/01/06 01:38:59;;;;;;;5.95;3.60;;;;;10.30;101609.00;;;;5009725;28;20361;-76
2021/01/06 01:41:27;;;;;;;6.95;3.20;;;;;10.30;101620.00;;;;5007724;28;20220;-76
2021/01/06 01:43:55;;;;;;;4.60;3.08;;;;;10.30;101619.00;;;;5009151;28;20280;-76
2021/01/06 01:46:33;;;;;;;5.57;3.88;;;;;10.20;101618.00;;;;4996092;28;20214;-76
2021/01/06 01:49:03;;;;;;;4.97;3.00;;;;;10.20;101608.00;;;;4989981;28;20209;-76
2021/01/06 01:51:36;;;;;;;5.43;3.35;;;;;10.20;101612.00;;;;5003940;28;20700;-76
2021/01/06 01:54:06;;;;;;;5.10;3.17;;;;;10.20;101614.00;;;;4990216;28;20213;-76
2021/01/06 01:56:39;;;;;;;5.72;3.50;;;;;10.20;101616.00;;;;4992248;28;20671;-76
2021/01/06 01:59:11;;;;;;;5.53;3.22;;;;;10.20;101617.00;;;;4989174;28;20324;-75
2021/01/06 02:01:39;;;;;;;5.40;3.28;;;;;10.20;101620.00;;;;5000718;28;20225;-75
2021/01/06 02:04:12;;;;;;;6.50;3.40;;;;;10.20;101616.00;;;;4989542;28;20216;-76
2021/01/06 02:06:44;;;;;;;4.57;3.05;;;;;10.20;101617.00;;;;5007265;28;20259;-76
2021/01/06 02:09:16;;;;;;;5.13;2.78;;;;;10.20;101626.00;;;;5007669;28;20209;-75
2021/01/06 02:11:47;;;;;;;5.13;3.08;;;;;10.10;101614.00;;;;5004094;28;20193;-76
2021/01/06 02:14:17;;;;;;;4.13;3.15;;;;;10.10;101621.00;;;;4991597;28;20204;-75
2021/01/06 02:16:49;;;;;;;4.82;3.28;;;;;10.10;101613.00;;;;4989167;28;20202;-76
2021/01/06 02:19:19;;;;;;;4.35;2.95;;;;;10.10;101629.00;;;;4998273;28;20197;-76
2021/01/06 02:21:47;;;;;;;7.15;3.50;;;;;10.10;101619.00;;;;5003099;28;20213;-76
2021/01/06 02:24:14;;;;;;;4.65;2.83;;;;;10.10;101620.00;;;;4992619;28;20248;-76
2021/01/06 02:26:41;;;;;;;4.68;3.20;;;;;10.10;101626.00;;;;5003149;28;20683;-76
2021/01/06 02:29:09;;;;;;;4.05;3.10;;;;;10.10;101626.00;;;;5008081;28;20193;-75
2021/01/06 02:31:35;;;;;;;4.25;2.67;;;;;10.10;101618.00;;;;5003938;28;20682;-75
2021/01/06 02:34:03;;;;;;;4.60;3.30;;;;;10.10;101622.00;;;;5007808;28;20201;-75
2021/01/06 02:36:30;;;;;;;4.22;3.08;;;;;10.10;101615.00;;;;4994701;28;20704;-76
2021/01/06 02:38:58;;;;;;;5.55;3.50;;;;;10.10;101620.00;;;;5008069;28;20212;-75
2021/01/06 02:41:25;;;;;;;4.72;2.70;;;;;10.10;101609.00;;;;5006582;28;20597;-76
2021/01/06 02:43:52;;;;;;;4.15;3.35;;;;;10.10;101618.00;;;;4992771;28;20232;-75
2021/01/06 02:46:19;;;;;;;5.40;3.80;;;;;10.10;101619.00;;;;5003799;28;20480;-76
2021/01/06 02:48:46;;;;;;;4.70;3.08;;;;;10.10;101616.00;;;;5008846;28;20584;-75
2021/01/06 02:51:18;;;;;;;5.05;3.35;;;;;10.00;101616.00;;;;4996709;28;20668;-76
2021/01/06 02:53:49;;;;;;;6.35;2.92;;;;;10.00;101613.00;;;;5008252;28;20228;-76
2021/01/06 02:56:19;;;;;;;5.55;3.33;;;;;10.00;101605.00;;;;5005074;28;20663;-75
2021/01/06 02:58:47;;;;;;;4.72;3.08;;;;;10.00;101617.00;;;;5007520;28;20276;-75
2021/01/06 03:01:16;;;;;;;3.58;2.70;;;;;10.00;101612.00;;;;4999351;28;20707;-76
2021/01/06 03:03:43;;;;;;;4.40;3.22;;;;;10.00;101609.00;;;;5008634;28;20197;-75
2021/01/06 03:06:17;;;;;;;5.68;3.40;;;;;9.90;101605.00;;;;5007751;28;20569;-76
2021/01/06 03:08:44;;;;;;;4.07;2.90;;;;;9.90;101603.00;;;;5008500;28;20197;-76
2021/01/06 03:11:11;;;;;;;4.03;3.08;;;;;9.90;101607.00;;;;4999811;28;20190;-75
2021/01/06 03:13:38;;;;;;;3.55;2.50;;;;;9.90;101596.00;;;;4994957;28;20212;-76
2021/01/06 03:16:06;;;;;;;4.35;2.95;;;;;9.90;101599.00;;;;5001490;28;20193;-76
2021/01/06 03:18:32;;;;;;;4.88;2.85;;;;;9.90;101595.00;;;;5004621;28;20219;-76
2021/01/06 03:21:02;;;;;;;4.90;3.17;;;;;9.90;101596.00;;;;5010245;28;20220;-75
2021/01/06 03:23:32;;;;;;;5.63;2.70;;;;;9.80;101596.00;;;;5012925;28;20208;-75
2021/01/06 03:26:04;;;;;;;3.25;2.42;;;;;9.80;101591.00;;;;5007526;28;20194;-76
2021/01/06 03:28:35;;;;;;;4.22;2.67;;;;;9.80;101592.00;;;;5011708;28;20197;-76
2021/01/06 03:31:05;;;;;;;4.93;2.92;;;;;9.80;101605.00;;;;5011276;28;20238;-76
2021/01/06 03:33:35;;;;;;;5.00;2.83;;;;;9.80;101598.00;;;;5011720;28;20201;-76
2021/01/06 03:36:06;;;;;;;3.65;2.70;;;;;9.70;101593.00;;;;5004705;28;20278;-75
2021/01/06 03:38:37;;;;;;;3.67;2.72;;;;;9.70;101588.00;;;;4992425;28;20677;-76
2021/01/06 03:41:06;;;;;;;4.05;2.90;;;;;9.70;101588.00;;;;4993316;28;20276;-76
2021/01/06 03:43:37;;;;;;;4.45;3.00;;;;;9.70;101585.00;;;;5001516;28;20193;-75
2021/01/06 03:46:12;;;;;;;4.18;2.92;;;;;9.70;101585.00;;;;5011439;28;20193;-76
2021/01/06 03:48:47;;;;;;;4.53;2.92;;;;;9.60;101585.00;;;;5011359;28;20282;-76
2021/01/06 03:51:23;;;;;;;4.10;3.05;;;;;9.60;101582.00;;;;5005972;28;20682;-76
2021/01/06 03:53:53;;;;;;;4.18;3.10;;;;;9.70;101582.00;;;;5002279;28;20203;-76
2021/01/06 03:56:24;;;;;;;4.68;3.22;;;;;9.60;101580.00;;;;5004939;28;20198;-76
2021/01/06 03:58:53;;;;;;;4.63;3.05;;;;;9.60;101585.00;;;;5005075;28;20233;-76
2021/01/06 04:01:46;;;;;;;5.25;3.45;;;;;9.60;101575.00;;;;5007879;28;20213;-75
2021/01/06 04:04:20;;;;;;;5.07;2.80;;;;;9.60;101572.00;;;;4992263;28;20288;-76
2021/01/06 04:06:51;;;;;;;7.93;3.08;;;;;9.50;101573.00;;;;4999817;28;20201;-75
2021/01/06 04:09:23;;;;;;;5.38;3.22;;;;;9.50;101581.00;;;;4998174;28;20209;-76
2021/01/06 04:12:04;;;;;;;3.72;2.45;;;;;9.50;101574.00;;;;5000282;28;20201;-75
2021/01/06 04:14:30;;;;;;;3.80;2.58;;;;;9.50;101579.00;;;;4991222;28;20256;-75
2021/01/06 04:17:21;;;;;;;4.55;2.83;;;;;9.50;101572.00;;;;5003566;28;20197;-76
2021/01/06 04:19:50;;;;;;;4.68;3.45;;;;;9.50;101580.00;;;;5009897;28;20196;-76
2021/01/06 04:22:24;;;;;;;3.10;2.40;;;;;9.50;101566.00;;;;4996190;28;20202;-76
2021/01/06 04:24:50;;;;;;;5.43;3.13;;;;;9.50;101581.00;;;;5009711;28;20204;-76
2021/01/06 04:27:19;;;;;;;4.85;3.13;;;;;9.50;101571.00;;;;5009646;28;20203;-76
2021/01/06 04:29:47;;;;;;;4.93;3.30;;;;;9.50;101570.00;;;;5009036;28;20209;-76
2021/01/06 04:32:14;;;;;;;4.25;2.95;;;;;9.50;101571.00;;;;5006780;28;20205;-76
2021/01/06 04:34:41;;;;;;;4.70;3.05;;;;;9.50;101564.00;;;;5009533;28;20197;-76
2021/01/06 04:37:08;;;;;;;4.50;3.13;;;;;9.50;101568.00;;;;5009521;28;20673;-76
2021/01/06 04:39:34;;;;;;;3.53;2.70;;;;;9.50;101572.00;;;;5010482;28;20209;-75
2021/01/06 04:42:05;;;;;;;4.47;2.97;;;;;9.40;101568.00;;;;4998917;28;20218;-75
2021/01/06 04:44:49;;;;;;;6.68;3.65;;;;;9.30;101568.00;;;;4990799;28;20209;-75
2021/01/06 04:47:33;;;;;;;3.95;2.60;;;;;9.30;101558.00;;;;5005168;28;20205;-75
2021/01/06 04:50:41;;;;;;;4.30;2.45;;;;;9.30;101562.00;;;;5009787;28;20204;-75
2021/01/06 04:53:16;;;;;;;4.72;3.28;;;;;9.30;101560.00;;;;4984445;28;20198;-75
2021/01/06 04:55:57;;;;;;;4.45;2.75;;;;;9.30;101552.00;;;;4990817;28;20202;-76
2021/01/06 04:58:35;;;;;;;4.93;3.30;;;;;9.30;101553.00;;;;5009625;28;20232;-76
2021/01/06 05:01:28;;;;;;;6.78;3.28;;;;;9.30;101557.00;;;;5007098;28;20228;-76
2021/01/06 05:04:14;;;;;;;4.93;2.50;;;;;9.30;101553.00;;;;4999598;28;20256;-76
2021/01/06 05:07:00;;;;;;;4.20;2.72;;;;;9.20;101548.00;;;;5009448;28;20255;-76
2021/01/06 05:09:32;;;;;;;3.97;2.70;;;;;9.30;101554.00;;;;5003788;28;20260;-75
2021/01/06 05:12:09;;;;;;;5.22;2.88;;;;;9.30;101556.00;;;;4998802;28;20205;-76
2021/01/06 05:14:44;;;;;;;4.18;2.67;;;;;9.30;101551.00;;;;5009274;28;20197;-76
2021/01/06 05:17:12;;;;;;;4.70;3.13;;;;;9.30;101557.00;;;;5008439;28;20203;-75
2021/01/06 05:19:43;;;;;;;5.57;2.92;;;;;9.30;101554.00;;;;5006372;28;20671;-76
2021/01/06 05:22:12;;;;;;;4.72;2.80;;;;;9.30;101556.00;;;;5002358;28;20229;-75
2021/01/06 05:24:41;;;;;;;5.07;3.15;;;;;9.30;101553.00;;;;4991612;28;20190;-76
2021/01/06 05:27:36;;;;;;;3.85;2.30;;;;;9.20;101550.00;;;;4994747;28;20205;-76
2021/01/06 05:30:16;;;;;;;4.07;2.50;;;;;9.30;101551.00;;;;4985379;28;20209;-75
2021/01/06 05:32:43;;;;;;;4.82;2.97;;;;;9.30;101555.00;;;;5000626;28;20193;-75
2021/01/06 05:35:16;;;;;;;4.75;3.00;;;;;9.20;101556.00;;;;5008583;28;20200;-75
2021/01/06 05:37:45;;;;;;;5.53;2.72;;;;;9.30;101557.00;;;;4991259;28;20260;-76
2021/01/06 05:40:14;;;;;;;3.83;2.60;;;;;9.30;101552.00;;;;4997900;28;20690;-77
2021/01/06 05:42:48;;;;;;;5.47;2.90;;;;;9.30;101555.00;;;;5007850;28;20200;-75
2021/01/06 05:45:16;;;;;;;4.82;3.15;;;;;9.30;101548.00;;;;5008689;28;20195;-75
2021/01/06 05:47:46;;;;;;;3.75;2.70;;;;;9.30;101554.00;;;;5007147;28;20235;-75
2021/01/06 05:50:18;;;;;;;6.43;3.20;;;;;9.30;101556.00;;;;5008559;28;20263;-76
2021/01/06 05:52:52;;;;;;;3.97;2.95;;;;;9.30;101558.00;;;;5003100;28;20236;-75
2021/01/06 05:55:20;;;;;;;4.40;2.85;;;;;9.30;101551.00;;;;5000907;28;20344;-77
2021/01/06 05:57:55;;;;;;;4.57;2.88;;;;;9.30;101549.00;;;;5007465;28;20279;-77
2021/01/06 06:00:44;;;;;;;3.85;2.72;;;;;9.30;101555.00;;;;5005718;28;20694;-78
2021/01/06 06:03:46;;;;;;;5.10;2.55;;;;;9.30;101562.00;;;;5002078;28;20224;-78
2021/01/06 06:06:43;;;;;;;4.18;2.97;;;;;9.30;101566.00;;;;4999713;28;20200;-77
2021/01/06 06:09:17;;;;;;;4.22;2.67;;;;;9.40;101572.00;;;;5007594;28;20331;-78
2021/01/06 06:12:18;;;;;;;4.90;2.63;;;;;9.30;101570.00;;;;4994247;28;20549;-78
2021/01/06 06:15:15;;;;;;;4.65;3.03;;;;;9.30;101565.00;;;;4989133;28;20602;-78
2021/01/06 06:18:25;;;;;;;5.47;2.65;;;;;9.30;101565.00;;;;5008077;28;20217;-78
2021/01/06 06:20:59;;;;;;;4.13;2.65;;;;;9.30;101565.00;;;;4993737;28;20315;-78
2021/01/06 06:23:48;;;;;;;4.88;3.00;;;;;9.30;101563.00;;;;4997471;28;20202;-78
2021/01/06 06:26:22;;;;;;;4.45;2.80;;;;;9.30;101563.00;;;;5000942;28;20225;-78
2021/01/06 06:28:55;;;;;;;4.38;2.88;;;;;9.30;101568.00;;;;4988425;28;20206;-77
2021/01/06 06:31:30;;;;;;;4.88;3.20;;;;;9.30;101569.00;;;;4994738;28;20233;-78
2021/01/06 06:33:59;;;;;;;6.03;3.80;;;;;9.30;101574.00;;;;4991554;28;20206;-77
2021/01/06 06:36:28;;;;;;;5.80;3.67;;;;;9.30;101572.00;;;;4996732;28;20193;-78
2021/01/06 06:39:01;;;;;;;5.00;3.00;;;;;9.30;101571.00;;;;5007974;28;20629;-78
2021/01/06 06:41:34;;;;;;;4.15;2.83;;;;;9.30;101570.00;;;;5001421;28;20256;-78
2021/01/06 06:44:26;;;;;;;3.88;2.80;;;;;9.20;101580.00;;;;4988250;28;20209;-78
2021/01/06 06:47:08;;;;;;;3.53;2.50;;;;;9.30;101581.00;;;;4999479;28;21123;-78
2021/01/06 06:49:55;;;;;;;3.78;2.70;;;;;9.30;101586.00;;;;5008668;28;20231;-78
2021/01/06 06:52:30;;;;;;;4.07;2.85;;;;;9.30;101580.00;;;;5000512;28;20204;-78
2021/01/06 06:55:06;;;;;;;3.95;2.63;;;;;9.30;101579.00;;;;4993764;28;20201;-78
2021/01/06 06:57:39;;;;;;;3.88;2.50;;;;;9.30;101586.00;;;;5007815;28;20262;-78
2021/01/06 07:00:15;;;;;;;3.75;2.47;;;;;9.30;101580.00;;;;5007877;28;20220;-77
2021/01/06 07:02:44;;;;;;;3.70;2.25;;;;;9.30;101592.00;;;;5002509;28;20205;-77
2021/01/06 07:05:20;;;;;;;3.70;2.38;;;;;9.30;101584.00;;;;5011572;28;20205;-79
2021/01/06 07:07:53;;;;;;;3.72;2.22;;;;;9.30;101584.00;;;;5012157;28;20215;-79
2021/01/06 07:10:25;;;;;;;2.92;1.90;;;;;9.30;101582.00;;;;5009511;28;20694;-78
2021/01/06 07:12:55;;;;;;;4.00;2.50;;;;;9.30;101576.00;;;;5010149;28;20251;-77
2021/01/06 07:15:31;;;;;;;4.10;2.60;;;;;9.20;101580.00;;;;5006375;28;20205;-78
2021/01/06 07:18:00;;;;;;;3.78;2.30;;;;;9.30;101576.00;;;;5003735;28;20193;-78
2021/01/06 07:20:41;;;;;;;3.40;2.20;;;;;9.20;101589.00;;;;5010565;28;20276;-78
2021/01/06 07:23:17;;;;;;;2.78;1.85;;;;;9.20;101585.00;;;;5012171;28;20209;-78
2021/01/06 07:25:56;;;;;;;3.55;2.30;;;;;9.20;101586.00;;;;5004234;28;20208;-78
2021/01/06 07:28:23;;;;;;;3.80;2.47;;;;;9.20;101589.00;;;;4992395;28;20212;-78
2021/01/06 07:30:51;;;;;;;3.90;2.38;;;;;9.20;101586.00;;;;4996413;28;20683;-78
2021/01/06 07:33:33;;;;;;;4.90;2.42;;;;;9.10;101595.00;;;;5009653;28;20205;-77
2021/01/06 07:36:09;;;;;;;3.40;2.30;;;;;9.10;101596.00;;;;5011230;28;20197;-77
2021/01/06 07:38:37;;;;;;;4.35;2.45;;;;;9.20;101595.00;;;;4996832;28;20224;-77
2021/01/06 07:41:05;;;;;;;4.00;2.60;;;;;9.20;101595.00;;;;5009347;28;20225;-78
2021/01/06 07:43:36;;;;;;;3.58;2.53;;;;;9.20;101596.00;;;;5008686;28;20189;-78
2021/01/06 07:46:14;;;;;;;5.43;2.60;;;;;9.10;101595.00;;;;5011791;28;20200;-77
2021/01/06 07:49:10;;;;;;;2.70;2.00;;;;;9.10;101599.00;;;;5011174;28;20193;-77
2021/01/06 07:51:52;;;;;;;3.65;2.25;;;;;9.10;101604.00;;;;4993928;28;20236;-78
2021/01/06 07:54:26;;;;;;;5.13;2.65;;;;;9.10;101603.00;;;;4993097;28;20631;-76
2021/01/06 07:57:11;;;;;;;4.25;2.20;;;;;9.10;101600.00;;;;4999395;28;20196;-77
2021/01/06 07:59:46;;;;;;;3.53;2.55;;;;;9.10;101608.00;;;;5003994;28;20233;-77
2021/01/06 08:02:19;;;;;;;4.15;2.55;;;;;9.20;101602.00;;;;5000739;28;20283;-78
2021/01/06 08:05:15;;;;;;;4.57;3.17;;;;;9.10;101605.00;;;;5004150;28;20804;-78
2021/01/06 08:07:42;;;;;;;4.10;2.38;;;;;9.20;101606.00;;;;5006684;28;20239;-78
2021/01/06 08:10:24;;;;;;;3.60;2.38;;;;;9.20;101601.00;;;;5003541;28;20198;-78
2021/01/06 08:12:52;;;;;;;4.00;2.60;;;;;9.20;101612.00;;;;5006591;28;20197;-76
2021/01/06 08:15:28;;;;;;;4.93;3.20;;;;;9.20;101604.00;;;;5009258;28;20934;-77
2021/01/06 08:18:07;;;;;;;4.72;2.67;;;;;9.20;101613.00;;;;5009208;28;20201;-77
2021/01/06 08:20:37;;;;;;;3.90;2.65;;;;;9.30;101602.00;;;;5006282;28;20717;-77
2021/01/06 08:23:20;;;;;;;4.75;2.92;;;;;9.20;101607.00;;;;5008779;28;20193;-77
2021/01/06 08:25:57;;;;;;;6.70;2.47;;;;;9.20;101608.00;;;;5005137;28;20291;-77
2021/01/06 08:28:28;;;;;;;5.18;2.90;;;;;9.30;101608.00;;;;5004288;28;20200;-78
2021/01/06 08:31:07;;;;;;;3.85;2.47;;;;;9.30;101613.00;;;;5009648;28;20271;-77
2021/01/06 08:33:44;;;;;;;3.92;2.42;;;;;9.40;101607.00;;;;5006470;28;20208;-77
2021/01/06 08:36:12;;;;;;;4.53;2.85;;;;;9.40;101617.00;;;;5008608;28;20689;-76
2021/01/06 08:38:44;;;;;;;4.95;3.08;;;;;9.40;101615.00;;;;5009203;28;20593;-77
2021/01/06 08:41:19;;;;;;;3.42;2.72;;;;;9.30;101614.00;;;;5008255;28;20221;-77
2021/01/06 08:43:47;;;;;;;5.03;3.20;;;;;9.40;101609.00;;;;5006870;28;20193;-77
2021/01/06 08:46:22;;;;;;;4.93;2.95;;;;;9.40;101608.00;;;;5009552;28;20197;-77
2021/01/06 08:48:49;;;;;;;6.00;3.20;;;;;9.50;101615.00;;;;5008112;28;20200;-76
2021/01/06 08:51:29;;;;;;;5.60;3.78;;;;;9.50;101613.00;;;;5005212;28;20193;-76
2021/01/06 08:53:56;;;;;;;3.97;2.83;;;;;9.50;101619.00;;;;5003318;28;20675;-77
2021/01/06 08:56:25;;;;;;;5.15;3.13;;;;;9.50;101609.00;;;;5009712;28;20216;-76
2021/01/06 08:58:55;;;;;;;4.13;2.90;;;;;9.60;101615.00;;;;4992458;28;20778;-77
2021/01/06 09:01:34;;;;;;;3.92;2.60;;;;;9.50;101622.00;;;;5000748;28;20220;-77
2021/01/06 09:04:11;;;;;;;5.05;2.85;;;;;9.50;101615.00;;;;5003448;28;20259;-76
2021/01/06 09:06:51;;;;;;;4.55;3.15;;;;;9.50;101623.00;;;;4999228;28;20203;-77
2021/01/06 09:09:35;;;;;;;5.00;3.42;;;;;9.60;101626.00;;;;5001548;28;20587;-76
2021/01/06 09:12:03;;;;;;;4.00;2.42;;;;;9.60;101624.00;;;;5007393;28;20201;-76
2021/01/06 09:14:34;;;;;;;5.18;3.15;;;;;9.60;101630.00;;;;5003693;28;20786;-76
2021/01/06 09:17:09;;;;;;;4.38;2.60;;;;;9.70;101624.00;;;;5006232;28;20212;-76
2021/01/06 09:19:44;;;;;;;6.57;3.40;;;;;9.70;101627.00;;;;5009295;28;20197;-76
2021/01/06 09:22:13;;;;;;;4.68;2.72;;;;;9.70;101621.00;;;;5002252;28;20228;-77
2021/01/06 09:24:41;;;;;;;4.18;2.97;;;;;9.70;101623.00;;;;5007543;28;20220;-77
2021/01/06 09:27:24;;;;;;;5.78;3.20;;;;;9.70;101629.00;;;;5007990;28;20205;-77
2021/01/06 09:29:53;;;;;;;4.78;3.20;;;;;9.70;101630.00;;;;4999559;28;20205;-77
2021/01/06 09:32:24;;;;;;;4.03;2.60;;;;;9.80;101623.00;;;;5007631;28;20263;-78
2021/01/06 09:34:57;;;;;;;4.28;2.72;;;;;9.80;101624.00;;;;5008375;28;20566;-78
2021/01/06 09:37:27;;;;;;;5.05;2.83;;;;;9.80;101616.00;;;;5003517;28;20248;-77
2021/01/06 09:39:56;;;;;;;8.95;3.40;;;;;9.90;101617.00;;;;5004029;28;20201;-78
2021/01/06 09:42:24;;;;;;;5.13;3.00;;;;;9.90;101607.00;;;;5006783;28;20767;-77
2021/01/06 09:44:52;;;;;;;4.38;3.03;;;;;9.90;101618.00;;;;5001433;28;20248;-78
2021/01/06 09:47:26;;;;;;;5.90;2.80;;;;;9.90;101616.00;;;;5007293;28;20209;-78
2021/01/06 09:49:57;;;;;;;5.75;3.45;;;;;9.90;101613.00;;;;5005452;28;20255;-78
2021/01/06 09:52:28;;;;;;;5.38;3.17;;;;;9.90;101617.00;;;;5005842;28;20268;-78
2021/01/06 09:54:57;;;;;;;5.60;2.95;;;;;9.90;101604.00;;;;5001379;28;20685;-79
2021/01/06 09:57:25;;;;;;;5.13;3.35;;;;;9.90;101612.00;;;;5003802;28;20209;-78
2021/01/06 09:59:55;;;;;;;3.90;2.85;;;;;9.90;101602.00;;;;5007719;28;20228;-78
2021/01/06 10:02:25;;;;;;;4.53;3.08;;;;;9.90;101604.00;;;;5008412;28;20263;-78
2021/01/06 10:04:55;;;;;;;5.97;3.63;;;;;9.90;101606.00;;;;5002126;28;20570;-77
2021/01/06 10:07:36;;;;;;;4.03;2.75;;;;;9.90;101604.00;;;;4997375;28;20200;-76
2021/01/06 10:10:11;;;;;;;4.65;3.00;;;;;10.00;101604.00;;;;5004625;28;20212;-78
2021/01/06 10:12:57;;;;;;;4.03;2.38;;;;;10.00;101605.00;;;;5001454;28;20204;-77
2021/01/06 10:15:51;;;;;;;3.88;2.33;;;;;10.00;101604.00;;;;4998158;28;20601;-77
2021/01/06 10:18:29;;;;;;;4.45;2.95;;;;;10.10;101615.00;;;;5008163;28;20649;-77
2021/01/06 10:21:00;;;;;;;3.72;2.75;;;;;10.10;101612.00;;;;5005840;28;20224;-78
2021/01/06 10:23:34;;;;;;;5.50;3.10;;;;;10.20;101607.00;;;;5000176;28;20592;-78
2021/01/06 10:26:15;;;;;;;4.72;3.05;;;;;10.20;101604.00;;;;4997443;28;20206;-77
2021/01/06 10:28:45;;;;;;;6.15;3.35;;;;;10.20;101599.00;;;;5003241;28;20227;-78
2021/01/06 10:31:15;;;;;;;5.05;3.00;;;;;10.30;101599.00;;;;5005132;28;20197;-77
2021/01/06 10:34:01;;;;;;;6.68;3.17;;;;;10.20;101593.00;;;;5000382;28;20196;-77
2021/01/06 10:37:08;;;;;;;4.78;3.28;;;;;10.20;101584.00;;;;5001202;28;20271;-77
2021/01/06 10:39:39;;;;;;;5.50;2.97;;;;;10.30;101583.00;;;;4997156;28;20200;-76
2021/01/06 10:42:35;;;;;;;5.55;3.45;;;;;10.30;101585.00;;;;5004652;28;20251;-77
2021/01/06 10:45:07;;;;;;;5.25;3.30;;;;;10.40;101582.00;;;;4998612;28;20674;-76
2021/01/06 10:47:47;;;;;;;4.95;3.30;;;;;10.30;101576.00;;;;5007708;28;20197;-77
2021/01/06 10:50:41;;;;;;;5.78;3.47;;;;;10.30;101581.00;;;;5004148;28;20193;-77
2021/01/06 10:53:15;;;;;;;5.00;2.78;;;;;10.40;101577.00;;;;5002806;28;20255;-77
2021/01/06 10:55:49;;;;;;;5.07;3.03;;;;;10.40;101580.00;;;;5007756;28;20235;-78
2021/01/06 10:58:35;;;;;;;5.63;3.10;;;;;10.40;101571.00;;;;5001851;28;20595;-76
2021/01/06 11:01:48;;;;;;;4.90;3.00;;;;;10.30;101561.00;;;;5005043;28;20263;-77
2021/01/06 11:04:46;;;;;;;4.88;3.20;;;;;10.30;101570.00;;;;4999691;28;20201;-77
2021/01/06 11:07:25;;;;;;;4.68;3.22;;;;;10.40;101569.00;;;;5005231;28;20197;-75
2021/01/06 11:10:10;;;;;;;3.75;2.70;;;;;10.40;101567.00;;;;5006014;28;20248;-76
2021/01/06 11:12:51;;;;;;;4.75;2.63;;;;;10.50;101555.00;;;;5001506;28;20236;-77
2021/01/06 11:15:44;;;;;;;4.40;2.58;;;;;10.40;101544.00;;;;5007019;28;20978;-77
2021/01/06 11:18:16;;;;;;;5.03;2.55;;;;;10.50;101550.00;;;;5006903;28;20359;-78
2021/01/06 11:20:47;;;;;;;4.25;2.45;;;;;10.50;101543.00;;;;5002379;28;20217;-77
2021/01/06 11:23:44;;;;;;;4.47;2.88;;;;;10.50;101547.00;;;;4994253;28;20205;-77
2021/01/06 11:26:50;;;;;;;5.78;3.08;;;;;10.50;101535.00;;;;5006481;28;20196;-77
2021/01/06 11:29:49;;;;;;;4.82;2.78;;;;;10.60;101527.00;;;;4995635;28;20197;-77
2021/01/06 11:32:38;;;;;;;4.00;2.53;;;;;10.60;101537.00;;;;4998691;28;20201;-77
2021/01/06 11:35:25;;;;;;;3.40;2.50;;;;;10.60;101531.00;;;;5003897;28;20201;-77
2021/01/06 11:37:54;;;;;;;4.18;2.55;;;;;10.80;101534.00;;;;5004887;28;20232;-77
2021/01/06 11:40:49;;;;;;;3.92;2.33;;;;;10.70;101530.00;;;;5008503;28;20201;-77
2021/01/06 11:43:39;;;;;;;3.67;2.20;;;;;10.70;101519.00;;;;5010000;28;20197;-76
2021/01/06 11:46:47;;;;;;;4.10;2.70;;;;;10.80;101515.00;;;;5007405;28;20224;-77
2021/01/06 11:49:25;;;;;;;3.58;2.00;;;;;10.80;101519.00;;;;5009753;28;20228;-76
2021/01/06 11:52:22;;;;;;;4.30;2.67;;;;;10.80;101523.00;;;;4994569;28;20205;-77
2021/01/06 11:54:54;;;;;;;2.85;1.77;;;;;10.90;101527.00;;;;5007163;28;20516;-77
2021/01/06 11:57:29;;;;;;;2.72;1.88;;;;;10.90;101520.00;;;;5005681;28;20574;-78
2021/01/06 12:00:15;;;;;;;3.38;2.45;;;;;10.90;101521.00;;;;5002351;28;20220;-76
2021/01/06 12:02:55;;;;;;;7.78;3.00;;;;;11.00;101505.00;;;;5006894;28;20228;-77
2021/01/06 12:05:25;;;;;;;4.13;2.28;;;;;11.00;101504.00;;;;5004386;28;20204;-77
2021/01/06 12:08:25;;;;;;;7.13;2.30;;;;;11.00;101509.00;;;;5003894;28;20193;-77
2021/01/06 12:11:07;;;;;;;3.72;1.88;;;;;11.00;101507.00;;;;4966482;28;20205;-77
2021/01/06 12:13:47;;;;;;;2.88;2.17;;;;;11.00;101507.00;;;;5003669;28;20201;-77
2021/01/06 12:16:18;;;;;;;3.80;2.03;;;;;11.10;101500.00;;;;5007081;28;21057;-77
2021/01/06 12:19:18;;;;;;;4.28;1.92;;;;;11.00;101495.00;;;;5005684;28;20605;-78
2021/01/06 12:21:52;;;;;;;3.28;1.92;;;;;11.00;101488.00;;;;4972312;28;20229;-78
2021/01/06 12:24:22;;;;;;;3.50;1.95;;;;;11.10;101480.00;;;;5009508;28;20224;-78
2021/01/06 12:26:57;;;;;;;3.03;1.95;;;;;11.00;101476.00;;;;5006890;28;20659;-78
2021/01/06 12:29:29;;;;;;;2.83;1.90;;;;;11.00;101481.00;;;;5005082;28;20196;-78
2021/01/06 12:31:59;;;;;;;3.75;2.03;;;;;11.00;101468.00;;;;5009242;28;20189;-78
2021/01/06 12:34:34;;;;;;;4.10;2.58;;;;;10.90;101474.00;;;;5006047;28;20216;-78
2021/01/06 12:37:26;;;;;;;3.20;1.90;;;;;10.90;101476.00;;;;4994473;28;20250;-77
2021/01/06 12:40:16;;;;;;;3.38;2.15;;;;;10.90;101468.00;;;;4995825;28;20280;-78
2021/01/06 12:42:53;;;;;;;3.58;1.67;;;;;10.90;101466.00;;;;5006834;28;20232;-78
2021/01/06 12:45:25;;;;;;;2.88;1.83;;;;;11.00;101468.00;;;;5010765;28;20716;-78
2021/01/06 12:48:00;;;;;;;3.30;1.90;;;;;10.90;101465.00;;;;5009842;28;20206;-78
2021/01/06 12:50:33;;;;;;;3.53;1.55;;;;;10.90;101458.00;;;;5009743;28;20200;-78